createdAt,value
2023-04-18T00:03:58.220Z,26.33
2023-04-18T00:11:00.191Z,23.63
2023-04-18T00:18:03.859Z,23.00
2023-04-18T00:25:05.948Z,22.33
2023-04-18T00:32:07.698Z,22.70
2023-04-18T00:39:09.641Z,20.15
2023-04-18T00:46:11.525Z,23.05
2023-04-18T00:53:13.683Z,26.27
2023-04-18T01:00:15.713Z,28.95
2023-04-18T01:07:17.574Z,26.00
2023-04-18T01:14:19.892Z,27.95
2023-04-18T01:21:22.130Z,24.48
2023-04-18T01:28:24.169Z,23.20
2023-04-18T01:35:26.205Z,21.80
2023-04-18T01:42:28.024Z,24.10
2023-04-18T01:49:29.960Z,23.80
2023-04-18T01:56:31.723Z,23.75
2023-04-18T02:03:33.725Z,21.00
2023-04-18T02:10:36.955Z,21.95
2023-04-18T02:17:38.794Z,25.17
2023-04-18T02:24:40.505Z,24.42
2023-04-18T02:31:42.317Z,20.60
2023-04-18T02:38:45.201Z,23.45
2023-04-18T02:45:47.012Z,25.15
2023-04-18T02:52:48.860Z,26.45
2023-04-18T02:59:50.586Z,21.80
2023-04-18T03:06:53.522Z,22.90
2023-04-18T03:13:55.328Z,20.50
2023-04-18T03:20:57.500Z,29.42
2023-04-18T03:27:59.283Z,23.63
2023-04-18T03:35:01.169Z,24.77
2023-04-18T03:42:03.481Z,23.35
2023-04-18T03:49:10.895Z,26.85
2023-04-18T03:56:12.698Z,26.58
2023-04-18T04:03:14.622Z,27.50
2023-04-18T04:10:16.442Z,26.10
2023-04-18T04:17:18.247Z,24.10
2023-04-18T04:24:20.743Z,23.05
2023-04-18T04:31:22.645Z,19.75
2023-04-18T04:38:25.236Z,23.42
2023-04-18T04:45:27.233Z,21.77
2023-04-18T04:52:29.028Z,20.40
2023-04-18T04:59:31.685Z,26.23
2023-04-18T05:06:33.649Z,21.42
2023-04-18T05:13:35.522Z,22.48
2023-04-18T05:20:37.303Z,20.83
2023-04-18T05:27:39.223Z,20.90
2023-04-18T05:34:41.132Z,18.75
2023-04-18T05:41:43.257Z,19.00
2023-04-18T05:48:45.144Z,18.67
2023-04-18T05:55:48.933Z,17.42
2023-04-18T06:02:51.147Z,18.95
2023-04-18T06:09:54.310Z,18.38
2023-04-18T06:16:56.068Z,20.98
2023-04-18T06:23:57.911Z,17.73
2023-04-18T06:30:59.701Z,16.58
2023-04-18T06:38:01.828Z,19.60
2023-04-18T06:45:04.104Z,14.15
2023-04-18T06:52:05.984Z,17.58
2023-04-18T06:59:07.720Z,14.27
2023-04-18T07:06:10.910Z,13.77
2023-04-18T07:13:12.707Z,15.20
2023-04-18T07:20:14.615Z,14.20
2023-04-18T07:27:16.449Z,14.60
2023-04-18T07:34:18.194Z,14.75
2023-04-18T07:41:19.951Z,13.68
2023-04-18T07:48:22.785Z,13.05
2023-04-18T07:55:24.679Z,10.65
2023-04-18T08:02:26.594Z,15.40
2023-04-18T08:09:28.600Z,10.88
2023-04-18T08:16:30.729Z,13.77
2023-04-18T08:23:32.518Z,12.27
2023-04-18T08:30:34.397Z,11.32
2023-04-18T08:37:36.339Z,10.98
2023-04-18T08:44:38.405Z,8.93
2023-04-18T08:51:41.792Z,9.57
2023-04-18T08:58:45.509Z,9.05
2023-04-18T09:06:07.252Z,9.82
2023-04-18T09:13:10.225Z,9.98
2023-04-18T09:20:12.717Z,9.13
2023-04-18T09:27:14.608Z,6.82
2023-04-18T09:34:26.698Z,7.72
2023-04-18T09:41:30.698Z,11.45
2023-04-18T09:48:32.460Z,6.03
2023-04-18T09:55:34.516Z,6.00
2023-04-18T10:03:05.770Z,7.88
2023-04-18T10:10:07.903Z,7.63
2023-04-18T10:17:10.257Z,6.63
2023-04-18T10:24:32.050Z,6.22
2023-04-18T10:31:39.104Z,6.70
2023-04-18T10:38:48.034Z,6.60
2023-04-18T10:46:20.166Z,7.70
2023-04-18T10:53:29.970Z,10.07
2023-04-18T11:00:32.209Z,6.03
2023-04-18T11:07:34.417Z,6.35
2023-04-18T11:14:39.803Z,5.70
2023-04-18T11:21:41.618Z,8.23
2023-04-18T11:28:44.221Z,9.07
2023-04-18T11:35:46.942Z,7.00
2023-04-18T11:42:48.737Z,5.45
2023-04-18T11:49:57.082Z,5.82
2023-04-18T11:56:59.139Z,7.03
2023-04-18T12:04:02.482Z,7.75
2023-04-18T12:11:04.709Z,7.47
2023-04-18T12:18:08.632Z,6.55
2023-04-18T12:25:14.986Z,8.52
2023-04-18T12:32:19.027Z,9.48
2023-04-18T12:39:20.893Z,6.32
2023-04-18T12:46:22.959Z,7.18
2023-04-18T13:01:02.539Z,7.68
2023-04-18T13:08:16.228Z,8.13
2023-04-18T13:15:23.041Z,6.30
2023-04-18T13:22:25.031Z,5.93
2023-04-18T13:29:27.370Z,4.88
2023-04-18T13:36:29.310Z,6.68
2023-04-18T13:43:31.536Z,9.52
2023-04-18T13:50:33.313Z,11.00
2023-04-18T13:57:36.227Z,8.48
2023-04-18T14:04:38.263Z,6.00
2023-04-18T14:11:40.958Z,5.28
2023-04-18T14:18:42.897Z,5.93
2023-04-18T14:25:44.732Z,5.10
2023-04-18T14:32:46.870Z,5.78
2023-04-18T14:39:48.934Z,4.88
2023-04-18T14:46:51.020Z,5.85
2023-04-18T14:53:52.756Z,5.38
2023-04-18T15:00:54.552Z,5.90
2023-04-18T15:07:56.573Z,5.90
2023-04-18T15:14:59.672Z,5.57
2023-04-18T15:22:01.951Z,4.40
2023-04-18T15:29:05.308Z,8.13
2023-04-18T15:36:07.264Z,4.75
2023-04-18T15:43:09.130Z,5.35
2023-04-18T15:50:11.401Z,5.25
2023-04-18T15:57:13.180Z,4.70
2023-04-18T16:04:15.446Z,4.57
2023-04-18T16:11:19.686Z,5.13
2023-04-18T16:18:21.668Z,5.80
2023-04-18T16:25:23.501Z,6.18
2023-04-18T16:32:25.391Z,7.50
2023-04-18T16:39:28.403Z,6.97
2023-04-18T16:46:32.807Z,8.88
2023-04-18T16:53:34.734Z,7.65
2023-04-18T17:00:38.402Z,6.85
2023-04-18T17:07:40.486Z,5.18
2023-04-18T17:14:42.431Z,10.00
2023-04-18T17:21:44.500Z,4.95
2023-04-18T17:28:47.719Z,7.03
2023-04-18T17:35:50.817Z,8.23
2023-04-18T17:42:52.531Z,5.80
2023-04-18T17:49:54.958Z,8.35
2023-04-18T17:56:59.842Z,7.20
2023-04-18T18:04:02.637Z,7.63
2023-04-18T18:11:06.868Z,7.28
2023-04-18T18:18:10.216Z,6.85
2023-04-18T18:25:14.712Z,8.85
2023-04-18T18:32:20.610Z,8.73
2023-04-18T18:39:23.233Z,9.93
2023-04-18T18:46:26.294Z,8.15
2023-04-18T18:53:29.081Z,8.80
2023-04-18T19:00:32.649Z,7.00
2023-04-18T19:07:35.277Z,5.53
2023-04-18T19:14:39.470Z,8.00
2023-04-18T19:21:49.587Z,8.73
2023-04-18T19:28:52.887Z,5.25
2023-04-18T19:35:55.447Z,6.95
2023-04-18T19:43:01.104Z,6.50
2023-04-18T19:50:03.827Z,9.20
2023-04-18T19:57:06.986Z,6.93
2023-04-18T20:04:09.596Z,6.65
2023-04-18T20:11:13.136Z,5.45
2023-04-18T20:18:15.681Z,5.20
2023-04-18T20:25:18.492Z,4.70
2023-04-18T20:32:22.490Z,5.80
2023-04-18T20:39:25.212Z,4.65
2023-04-18T20:46:27.495Z,3.42
2023-04-18T20:53:30.087Z,6.38
2023-04-18T21:00:31.920Z,3.90
2023-04-18T21:07:33.964Z,5.53
2023-04-18T21:14:36.616Z,4.53
2023-04-18T21:21:38.417Z,4.70
2023-04-18T21:28:57.180Z,5.20
2023-04-18T21:35:59.336Z,6.23
2023-04-18T21:43:01.142Z,4.65
2023-04-18T21:50:03.616Z,5.75
2023-04-18T21:57:06.535Z,4.88
2023-04-18T22:04:09.300Z,5.75
2023-04-18T22:11:11.946Z,4.38
2023-04-18T22:18:14.530Z,6.28
2023-04-18T22:25:16.506Z,7.38
2023-04-18T22:32:18.391Z,10.07
2023-04-18T22:39:20.232Z,7.35
2023-04-18T22:46:21.983Z,6.32
2023-04-18T22:53:23.713Z,7.28
2023-04-18T23:00:25.429Z,7.05
2023-04-18T23:07:27.198Z,7.80
2023-04-18T23:14:29.396Z,7.78
2023-04-18T23:21:32.040Z,7.18
2023-04-18T23:28:33.906Z,10.65
2023-04-18T23:35:35.852Z,8.52
2023-04-18T23:42:37.719Z,9.07
2023-04-18T23:49:39.524Z,8.27
2023-04-18T23:56:41.375Z,8.25
